createdAt,value
2019-05-25T00:01:06.425Z,101161.78
2019-05-25T00:02:13.380Z,101163.45
2019-05-25T00:03:21.290Z,101161.78
2019-05-25T00:04:28.397Z,101162.41
2019-05-25T00:05:36.522Z,101158.53
2019-05-25T00:06:44.252Z,101153.92
2019-05-25T00:07:51.970Z,101157.62
2019-05-25T00:08:59.020Z,101156.77
2019-05-25T00:10:08.383Z,101157.62
2019-05-25T00:11:15.210Z,101153.75
2019-05-25T00:12:23.151Z,101155.96
2019-05-25T00:13:30.195Z,101154.26
2019-05-25T00:14:38.319Z,101158.13
2019-05-25T00:15:45.275Z,101155.21
2019-05-25T00:16:53.508Z,101159.89
2019-05-25T00:18:00.999Z,101155.19
2019-05-25T00:19:08.848Z,101159.09
2019-05-25T00:20:16.382Z,101156.83
2019-05-25T00:21:24.377Z,101162.79
2019-05-25T00:22:31.669Z,101158.91
2019-05-25T00:23:39.696Z,101156.27
2019-05-25T00:24:47.056Z,101158.58
2019-05-25T00:25:55.063Z,101164.50
2019-05-25T00:27:02.476Z,101162.28
2019-05-25T00:28:10.436Z,101161.39
2019-05-25T00:29:17.847Z,101168.49
2019-05-25T00:30:25.605Z,101165.95
2019-05-25T00:31:34.646Z,101168.13
2019-05-25T00:32:42.524Z,101168.55
2019-05-25T00:33:50.018Z,101165.03
2019-05-25T00:34:57.650Z,101168.16
2019-05-25T00:36:04.746Z,101176.05
2019-05-25T00:37:13.415Z,101164.92
2019-05-25T00:38:20.590Z,101171.28
2019-05-25T00:39:28.760Z,101173.34
2019-05-25T00:40:35.964Z,101171.56
2019-05-25T00:41:43.652Z,101171.77
2019-05-25T00:42:50.548Z,101170.05
2019-05-25T00:43:58.953Z,101166.64
2019-05-25T00:45:07.321Z,101174.04
2019-05-25T00:46:15.005Z,101174.27
2019-05-25T00:47:22.336Z,101167.02
2019-05-25T00:48:30.181Z,101175.07
2019-05-25T00:49:37.067Z,101174.62
2019-05-25T00:50:44.738Z,101175.16
2019-05-25T00:51:52.495Z,101175.44
2019-05-25T00:53:00.266Z,101174.04
2019-05-25T00:54:07.938Z,101171.89
2019-05-25T00:55:16.188Z,101172.75
2019-05-25T00:56:23.156Z,101177.89
2019-05-25T00:57:31.747Z,101182.61
2019-05-25T00:58:38.863Z,101176.27
2019-05-25T00:59:46.873Z,101175.97
2019-05-25T01:00:53.938Z,101185.00
2019-05-25T01:02:02.143Z,101183.80
2019-05-25T01:03:09.874Z,101183.42
2019-05-25T01:04:17.891Z,101181.81
2019-05-25T01:05:25.199Z,101181.97
2019-05-25T01:06:33.407Z,101187.55
2019-05-25T01:07:40.552Z,101177.70
2019-05-25T01:08:48.612Z,101178.45
2019-05-25T01:09:55.644Z,101180.08
2019-05-25T01:11:04.213Z,101178.41
2019-05-25T01:12:11.609Z,101176.31
2019-05-25T01:13:19.680Z,101183.11
2019-05-25T01:14:26.694Z,101176.67
2019-05-25T01:15:34.572Z,101182.31
2019-05-25T01:16:41.779Z,101183.38
2019-05-25T01:17:49.940Z,101185.84
2019-05-25T01:18:57.021Z,101180.97
2019-05-25T01:20:05.506Z,101181.78
2019-05-25T01:21:12.475Z,101183.40
2019-05-25T01:22:20.499Z,101185.09
2019-05-25T01:23:27.629Z,101184.02
2019-05-25T01:24:44.237Z,101184.39
2019-05-25T01:25:45.116Z,101185.55
2019-05-25T01:26:53.180Z,101181.63
2019-05-25T01:28:00.321Z,101183.75
2019-05-25T01:29:08.717Z,101186.64
2019-05-25T01:30:16.772Z,101184.52
2019-05-25T01:31:24.425Z,101181.00
2019-05-25T01:32:32.232Z,101187.31
2019-05-25T01:33:40.071Z,101183.34
2019-05-25T01:34:47.745Z,101186.80
2019-05-25T01:35:55.623Z,101187.11
2019-05-25T01:37:03.079Z,101181.44
2019-05-25T01:38:10.880Z,101194.12
2019-05-25T01:39:17.823Z,101183.52
2019-05-25T01:40:25.843Z,101188.36
2019-05-25T01:41:35.117Z,101189.31
2019-05-25T01:42:43.457Z,101193.22
2019-05-25T01:43:50.753Z,101193.25
2019-05-25T01:44:58.506Z,101194.92
2019-05-25T01:46:06.151Z,101191.49
2019-05-25T01:47:13.809Z,101188.09
2019-05-25T01:48:20.693Z,101191.49
2019-05-25T01:49:28.552Z,101194.56
2019-05-25T01:50:35.854Z,101195.02
2019-05-25T01:51:43.924Z,101193.64
2019-05-25T01:52:50.861Z,101191.94
2019-05-25T01:53:59.151Z,101192.15
2019-05-25T01:55:06.576Z,101192.92
2019-05-25T01:56:14.390Z,101187.38
2019-05-25T01:57:21.686Z,101189.55
2019-05-25T01:58:29.617Z,101189.97
2019-05-25T01:59:36.766Z,101187.38
2019-05-25T02:00:55.637Z,101188.20
2019-05-25T02:02:02.646Z,101190.72
2019-05-25T02:03:10.621Z,101189.02
2019-05-25T02:04:17.502Z,101187.46
2019-05-25T02:05:25.448Z,101187.79
2019-05-25T02:06:32.556Z,101187.70
2019-05-25T02:07:40.818Z,101186.77
2019-05-25T02:08:48.490Z,101187.25
2019-05-25T02:09:56.149Z,101190.20
2019-05-25T02:11:03.774Z,101185.55
2019-05-25T02:12:12.443Z,101191.91
2019-05-25T02:13:19.460Z,101188.95
2019-05-25T02:14:27.985Z,101187.76
2019-05-25T02:15:35.283Z,101190.59
2019-05-25T02:16:43.855Z,101187.67
2019-05-25T02:17:50.779Z,101194.09
2019-05-25T02:18:58.450Z,101189.85
2019-05-25T02:20:07.084Z,101185.37
2019-05-25T02:21:15.574Z,101182.26
2019-05-25T02:22:23.186Z,101188.52
2019-05-25T02:23:31.279Z,101188.47
2019-05-25T02:24:38.103Z,101187.17
2019-05-25T02:25:45.796Z,101186.25
2019-05-25T02:26:53.239Z,101185.28
2019-05-25T02:28:01.311Z,101186.54
2019-05-25T02:29:08.259Z,101180.53
2019-05-25T02:30:16.645Z,101184.06
2019-05-25T02:31:23.491Z,101184.58
2019-05-25T02:32:32.443Z,101191.03
2019-05-25T02:33:39.706Z,101187.02
2019-05-25T02:34:47.691Z,101189.53
2019-05-25T02:35:55.253Z,101185.28
2019-05-25T02:37:03.080Z,101186.92
2019-05-25T02:38:11.277Z,101195.79
2019-05-25T02:39:18.955Z,101200.03
2019-05-25T02:40:26.248Z,101192.73
2019-05-25T02:41:34.754Z,101194.19
2019-05-25T02:42:41.669Z,101195.44
2019-05-25T02:43:49.623Z,101195.24
2019-05-25T02:44:57.216Z,101197.36
2019-05-25T02:46:05.077Z,101199.84
2019-05-25T02:47:12.056Z,101199.90
2019-05-25T02:48:19.684Z,101198.13
2019-05-25T02:49:26.697Z,101201.38
2019-05-25T02:50:35.162Z,101199.67
2019-05-25T02:51:42.073Z,101201.83
2019-05-25T02:52:49.937Z,101201.22
2019-05-25T02:53:56.814Z,101197.40
2019-05-25T02:55:04.699Z,101200.32
2019-05-25T02:56:11.896Z,101198.48
2019-05-25T02:57:20.692Z,101196.37
2019-05-25T02:58:27.884Z,101194.67
2019-05-25T02:59:35.578Z,101198.04
2019-05-25T03:00:42.486Z,101193.64
2019-05-25T03:01:50.600Z,101197.07
2019-05-25T03:02:57.603Z,101198.74
2019-05-25T03:04:05.857Z,101199.89
2019-05-25T03:05:15.885Z,101203.11
2019-05-25T03:06:24.798Z,101200.96
2019-05-25T03:07:32.824Z,101198.81
2019-05-25T03:08:42.719Z,101200.09
2019-05-25T03:09:52.397Z,101205.17
2019-05-25T03:11:02.047Z,101203.37
2019-05-25T03:12:09.299Z,101204.17
2019-05-25T03:13:18.180Z,101199.06
2019-05-25T03:14:25.552Z,101199.58
2019-05-25T03:15:33.866Z,101204.30
2019-05-25T03:16:41.198Z,101201.70
2019-05-25T03:17:48.986Z,101204.13
2019-05-25T03:18:56.004Z,101201.08
2019-05-25T03:20:04.654Z,101203.37
2019-05-25T03:21:12.718Z,101203.65
2019-05-25T03:22:20.566Z,101204.07
2019-05-25T03:23:27.498Z,101203.20
2019-05-25T03:24:35.916Z,101203.23
2019-05-25T03:25:49.568Z,101204.55
2019-05-25T03:26:53.546Z,101208.80
2019-05-25T03:28:00.951Z,101202.69
2019-05-25T03:29:09.066Z,101205.61
2019-05-25T03:30:18.105Z,101207.30
2019-05-25T03:31:25.755Z,101208.27
2019-05-25T03:32:33.164Z,101210.43
2019-05-25T03:33:40.850Z,101208.80
2019-05-25T03:34:47.690Z,101215.31
2019-05-25T03:35:55.778Z,101210.56
2019-05-25T03:37:02.829Z,101210.08
2019-05-25T03:38:16.263Z,101218.69
2019-05-25T03:39:23.515Z,101219.63
2019-05-25T03:40:33.196Z,101218.66
2019-05-25T03:41:40.502Z,101216.37
2019-05-25T03:42:49.014Z,101216.37
2019-05-25T03:43:55.973Z,101216.83
2019-05-25T03:45:03.657Z,101218.56
2019-05-25T03:46:10.528Z,101223.00
2019-05-25T03:47:19.051Z,101212.72
2019-05-25T03:48:25.961Z,101218.14
2019-05-25T03:49:33.679Z,101219.42
2019-05-25T03:50:41.277Z,101221.58
2019-05-25T03:51:48.930Z,101222.16
2019-05-25T03:52:56.049Z,101221.58
2019-05-25T03:54:04.564Z,101221.55
2019-05-25T03:55:11.411Z,101221.64
2019-05-25T03:56:19.085Z,101222.41
2019-05-25T03:57:26.660Z,101217.27
2019-05-25T03:58:34.641Z,101224.09
2019-05-25T03:59:42.049Z,101222.41
2019-05-25T04:00:50.067Z,101224.41
2019-05-25T04:01:56.896Z,101222.34
2019-05-25T04:03:04.713Z,101224.85
2019-05-25T04:04:11.709Z,101227.55
2019-05-25T04:05:19.340Z,101228.07
2019-05-25T04:06:26.223Z,101226.78
2019-05-25T04:07:33.999Z,101229.30
2019-05-25T04:08:41.516Z,101224.85
2019-05-25T04:09:49.350Z,101229.09
2019-05-25T04:10:56.227Z,101227.70
2019-05-25T04:12:03.967Z,101234.07
2019-05-25T04:13:11.466Z,101232.75
2019-05-25T04:14:19.471Z,101236.98
2019-05-25T04:15:26.681Z,101240.05
2019-05-25T04:16:34.796Z,101238.31
2019-05-25T04:17:41.927Z,101237.02
2019-05-25T04:18:49.683Z,101240.30
2019-05-25T04:19:57.111Z,101238.08
2019-05-25T04:21:05.551Z,101239.25
2019-05-25T04:22:12.777Z,101241.93
2019-05-25T04:23:20.438Z,101235.19
2019-05-25T04:24:27.309Z,101239.14
2019-05-25T04:25:35.096Z,101239.18
2019-05-25T04:26:42.347Z,101241.02
2019-05-25T04:27:50.182Z,101245.70
2019-05-25T04:28:57.424Z,101240.77
2019-05-25T04:30:05.913Z,101236.04
2019-05-25T04:31:12.751Z,101237.33
2019-05-25T04:32:20.703Z,101234.62
2019-05-25T04:33:28.195Z,101238.09
2019-05-25T04:34:36.192Z,101243.23
2019-05-25T04:35:43.581Z,101244.45
2019-05-25T04:36:51.527Z,101244.88
2019-05-25T04:37:58.442Z,101248.70
2019-05-25T04:39:08.031Z,101246.95
2019-05-25T04:40:15.952Z,101250.23
2019-05-25T04:41:23.599Z,101248.81
2019-05-25T04:42:30.424Z,101251.38
2019-05-25T04:43:38.565Z,101251.25
2019-05-25T04:44:45.767Z,101248.95
2019-05-25T04:45:53.457Z,101248.92
2019-05-25T04:47:00.610Z,101251.39
2019-05-25T04:48:08.615Z,101252.36
2019-05-25T04:49:17.025Z,101246.70
2019-05-25T04:50:24.815Z,101249.55
2019-05-25T04:51:31.691Z,101250.03
2019-05-25T04:52:41.310Z,101254.00
2019-05-25T04:53:48.251Z,101247.19
2019-05-25T04:54:55.867Z,101253.41
2019-05-25T04:56:02.698Z,101248.13
2019-05-25T04:57:10.379Z,101254.83
2019-05-25T04:58:17.739Z,101255.14
2019-05-25T04:59:25.336Z,101249.51
2019-05-25T05:00:32.338Z,101245.47
2019-05-25T05:01:42.401Z,101255.16
2019-05-25T05:02:52.788Z,101257.39
2019-05-25T05:04:02.450Z,101259.33
2019-05-25T05:05:11.666Z,101256.19
2019-05-25T05:06:19.977Z,101263.80
2019-05-25T05:07:26.938Z,101259.56
2019-05-25T05:08:35.770Z,101263.05
2019-05-25T05:09:43.313Z,101261.41
2019-05-25T05:10:50.937Z,101261.23
2019-05-25T05:11:57.798Z,101260.25
2019-05-25T05:13:05.797Z,101262.26
2019-05-25T05:14:12.983Z,101261.73
2019-05-25T05:15:21.136Z,101262.71
2019-05-25T05:16:28.055Z,101264.30
2019-05-25T05:17:36.376Z,101268.92
2019-05-25T05:18:43.192Z,101265.52
2019-05-25T05:19:50.828Z,101267.19
2019-05-25T05:20:57.953Z,101266.80
2019-05-25T05:22:06.201Z,101269.19
2019-05-25T05:23:13.474Z,101258.36
2019-05-25T05:24:21.135Z,101262.94
2019-05-25T05:25:28.321Z,101272.48
2019-05-25T05:26:36.323Z,101265.28
2019-05-25T05:27:43.680Z,101265.67
2019-05-25T05:28:51.316Z,101265.62
2019-05-25T05:29:58.124Z,101263.73
2019-05-25T05:31:05.744Z,101267.37
2019-05-25T05:32:26.604Z,101263.99
2019-05-25T05:33:22.249Z,101264.87
2019-05-25T05:34:29.751Z,101264.53
2019-05-25T05:35:38.995Z,101266.38
2019-05-25T05:36:48.734Z,101270.16
2019-05-25T05:37:56.943Z,101264.59
2019-05-25T05:39:07.106Z,101269.08
2019-05-25T05:40:16.289Z,101270.00
2019-05-25T05:41:24.924Z,101271.66
2019-05-25T05:42:36.679Z,101269.47
2019-05-25T05:43:45.833Z,101271.80
2019-05-25T05:44:56.215Z,101278.50
2019-05-25T05:46:05.618Z,101268.48
2019-05-25T05:47:17.316Z,101273.19
2019-05-25T05:48:28.242Z,101274.13
2019-05-25T05:49:36.304Z,101270.11
2019-05-25T05:50:45.279Z,101275.14
2019-05-25T05:51:54.215Z,101276.38
2019-05-25T05:53:04.936Z,101279.59
2019-05-25T05:54:12.859Z,101282.25
2019-05-25T05:55:24.808Z,101284.66
2019-05-25T05:56:32.872Z,101281.84
2019-05-25T05:57:39.793Z,101284.00
2019-05-25T05:58:47.429Z,101285.08
2019-05-25T05:59:54.301Z,101285.33
2019-05-25T06:01:02.244Z,101284.91
2019-05-25T06:02:09.495Z,101286.33
2019-05-25T06:03:17.497Z,101283.86
2019-05-25T06:04:24.351Z,101288.72
2019-05-25T06:05:32.215Z,101286.72
2019-05-25T06:06:39.543Z,101283.13
2019-05-25T06:07:47.804Z,101289.30
2019-05-25T06:08:54.719Z,101282.81
2019-05-25T06:10:02.383Z,101292.06
2019-05-25T06:11:09.233Z,101288.02
2019-05-25T06:12:17.330Z,101290.23
2019-05-25T06:13:24.199Z,101284.87
2019-05-25T06:14:32.575Z,101279.79
2019-05-25T06:15:39.426Z,101290.98
2019-05-25T06:16:47.545Z,101288.78
2019-05-25T06:17:54.376Z,101290.11
2019-05-25T06:19:02.029Z,101289.66
2019-05-25T06:20:10.317Z,101288.66
2019-05-25T06:21:17.977Z,101297.02
2019-05-25T06:22:25.227Z,101296.30
2019-05-25T06:23:32.889Z,101298.13
2019-05-25T06:24:40.371Z,101296.34
2019-05-25T06:25:48.133Z,101300.42
2019-05-25T06:26:55.605Z,101301.70
2019-05-25T06:28:04.335Z,101298.30
2019-05-25T06:29:11.671Z,101301.36
2019-05-25T06:30:21.538Z,101304.14
2019-05-25T06:31:28.588Z,101301.39
2019-05-25T06:32:37.024Z,101307.75
2019-05-25T06:33:44.326Z,101302.48
2019-05-25T06:34:52.649Z,101302.02
2019-05-25T06:35:59.618Z,101299.81
2019-05-25T06:37:07.414Z,101302.22
2019-05-25T06:38:14.829Z,101300.14
2019-05-25T06:39:22.445Z,101298.17
2019-05-25T06:40:29.495Z,101303.66
2019-05-25T06:41:38.691Z,101298.77
2019-05-25T06:42:46.491Z,101304.58
2019-05-25T06:43:54.422Z,101298.03
2019-05-25T06:45:01.383Z,101300.11
2019-05-25T06:46:09.225Z,101306.06
2019-05-25T06:47:16.161Z,101303.53
2019-05-25T06:48:24.375Z,101302.73
2019-05-25T06:49:31.667Z,101301.84
2019-05-25T06:50:40.445Z,101299.77
2019-05-25T06:51:47.660Z,101300.27
2019-05-25T06:52:57.873Z,101303.77
2019-05-25T06:54:04.608Z,101304.47
2019-05-25T06:55:13.316Z,101302.13
2019-05-25T06:56:20.706Z,101307.05
2019-05-25T06:57:42.053Z,101303.69
2019-05-25T06:58:37.239Z,101298.61
2019-05-25T06:59:45.087Z,101305.98
2019-05-25T07:00:52.279Z,101299.58
2019-05-25T07:02:00.068Z,101310.41
2019-05-25T07:03:07.892Z,101309.83
2019-05-25T07:04:16.096Z,101311.36
2019-05-25T07:05:22.987Z,101312.86
2019-05-25T07:06:30.975Z,101309.73
2019-05-25T07:07:37.787Z,101309.70
2019-05-25T07:08:46.053Z,101306.91
2019-05-25T07:09:53.011Z,101309.31
2019-05-25T07:11:00.720Z,101305.58
2019-05-25T07:12:07.771Z,101310.60
2019-05-25T07:13:15.656Z,101317.23
2019-05-25T07:14:23.703Z,101314.27
2019-05-25T07:15:31.965Z,101311.19
2019-05-25T07:16:39.143Z,101309.95
2019-05-25T07:17:47.051Z,101310.41
2019-05-25T07:18:53.884Z,101318.18
2019-05-25T07:20:01.562Z,101317.86
2019-05-25T07:21:08.523Z,101316.11
2019-05-25T07:22:16.139Z,101319.19
2019-05-25T07:23:22.961Z,101316.44
2019-05-25T07:24:31.261Z,101319.31
2019-05-25T07:25:38.600Z,101318.40
2019-05-25T07:26:46.629Z,101321.09
2019-05-25T07:27:59.844Z,101313.98
2019-05-25T07:29:03.163Z,101323.59
2019-05-25T07:30:12.008Z,101323.55
2019-05-25T07:31:20.429Z,101326.26
2019-05-25T07:32:27.875Z,101325.39
2019-05-25T07:33:36.460Z,101329.47
2019-05-25T07:34:43.355Z,101325.92
2019-05-25T07:35:51.162Z,101329.47
2019-05-25T07:36:59.013Z,101329.17
2019-05-25T07:38:07.405Z,101330.30
2019-05-25T07:39:14.825Z,101333.45
2019-05-25T07:40:22.640Z,101335.95
2019-05-25T07:41:29.879Z,101333.41
2019-05-25T07:42:37.908Z,101334.91
2019-05-25T07:43:45.305Z,101336.66
2019-05-25T07:44:53.918Z,101336.48
2019-05-25T07:46:01.802Z,101332.13
2019-05-25T07:47:09.694Z,101334.61
2019-05-25T07:48:17.504Z,101338.39
2019-05-25T07:49:26.018Z,101337.52
2019-05-25T07:50:32.862Z,101336.69
2019-05-25T07:51:40.950Z,101334.89
2019-05-25T07:52:48.526Z,101335.05
2019-05-25T07:53:57.431Z,101345.05
2019-05-25T07:55:05.372Z,101339.81
2019-05-25T07:56:13.632Z,101340.80
2019-05-25T07:57:21.092Z,101342.55
2019-05-25T07:58:29.073Z,101345.45
2019-05-25T07:59:36.835Z,101341.80
2019-05-25T08:00:44.997Z,101345.20
2019-05-25T08:01:52.221Z,101347.00
2019-05-25T08:03:01.259Z,101351.18
2019-05-25T08:04:08.787Z,101349.82
2019-05-25T08:05:17.217Z,101349.67
2019-05-25T08:06:25.006Z,101349.94
2019-05-25T08:07:33.108Z,101347.56
2019-05-25T08:08:40.509Z,101351.20
2019-05-25T08:09:48.389Z,101349.14
2019-05-25T08:10:55.192Z,101350.98
2019-05-25T08:12:02.907Z,101349.22
2019-05-25T08:13:10.325Z,101352.10
2019-05-25T08:14:18.839Z,101347.09
2019-05-25T08:15:25.783Z,101354.34
2019-05-25T08:16:35.021Z,101353.66
2019-05-25T08:17:44.606Z,101350.42
2019-05-25T08:18:52.646Z,101357.62
2019-05-25T08:20:00.056Z,101348.61
2019-05-25T08:21:08.603Z,101354.25
2019-05-25T08:22:15.958Z,101356.73
2019-05-25T08:23:24.938Z,101354.60
2019-05-25T08:24:32.688Z,101348.91
2019-05-25T08:25:40.752Z,101356.73
2019-05-25T08:26:48.210Z,101352.38
2019-05-25T08:27:56.225Z,101354.70
2019-05-25T08:29:03.367Z,101355.70
2019-05-25T08:30:11.934Z,101357.86
2019-05-25T08:31:19.477Z,101353.28
2019-05-25T08:32:27.986Z,101353.92
2019-05-25T08:33:35.554Z,101355.62
2019-05-25T08:34:43.329Z,101355.33
2019-05-25T08:35:50.371Z,101358.87
2019-05-25T08:36:58.198Z,101360.50
2019-05-25T08:38:05.618Z,101360.95
2019-05-25T08:39:14.116Z,101358.15
2019-05-25T08:40:21.516Z,101357.26
2019-05-25T08:41:30.392Z,101357.60
2019-05-25T08:42:37.370Z,101356.47
2019-05-25T08:43:45.630Z,101357.08
2019-05-25T08:44:53.225Z,101355.64
2019-05-25T08:46:01.680Z,101359.67
2019-05-25T08:47:09.463Z,101365.83
2019-05-25T08:48:17.742Z,101362.75
2019-05-25T08:49:24.754Z,101364.56
2019-05-25T08:50:38.274Z,101362.64
2019-05-25T08:51:42.012Z,101367.67
2019-05-25T08:52:50.249Z,101368.77
2019-05-25T08:53:57.551Z,101362.41
2019-05-25T08:55:05.263Z,101366.81
2019-05-25T08:56:12.402Z,101372.97
2019-05-25T08:57:20.481Z,101372.92
2019-05-25T08:58:27.535Z,101372.23
2019-05-25T08:59:35.777Z,101374.28
2019-05-25T09:00:42.720Z,101375.63
2019-05-25T09:01:50.529Z,101377.84
2019-05-25T09:02:57.518Z,101379.08
2019-05-25T09:04:05.372Z,101379.66
2019-05-25T09:05:12.690Z,101371.81
2019-05-25T09:06:20.791Z,101372.83
2019-05-25T09:07:27.671Z,101379.32
2019-05-25T09:08:36.036Z,101383.41
2019-05-25T09:09:42.909Z,101382.89
2019-05-25T09:10:50.499Z,101381.53
2019-05-25T09:11:57.333Z,101387.70
2019-05-25T09:13:05.032Z,101382.03
2019-05-25T09:14:11.850Z,101388.53
2019-05-25T09:15:21.167Z,101386.84
2019-05-25T09:16:28.458Z,101389.20
2019-05-25T09:17:36.742Z,101389.63
2019-05-25T09:18:43.951Z,101385.67
2019-05-25T09:19:51.757Z,101388.70
2019-05-25T09:20:59.111Z,101388.45
2019-05-25T09:22:06.939Z,101393.56
2019-05-25T09:23:14.542Z,101392.53
2019-05-25T09:24:22.382Z,101387.75
2019-05-25T09:25:29.291Z,101393.23
2019-05-25T09:26:37.329Z,101386.92
2019-05-25T09:27:44.248Z,101385.41
2019-05-25T09:29:03.947Z,101387.67
2019-05-25T09:30:01.827Z,101390.16
2019-05-25T09:31:09.807Z,101397.74
2019-05-25T09:32:16.879Z,101393.64
2019-05-25T09:33:24.957Z,101395.53
2019-05-25T09:34:32.194Z,101391.98
2019-05-25T09:35:40.186Z,101393.92
2019-05-25T09:36:47.733Z,101390.83
2019-05-25T09:37:55.446Z,101401.30
2019-05-25T09:39:02.848Z,101400.70
2019-05-25T09:40:11.019Z,101397.86
2019-05-25T09:41:18.132Z,101392.61
2019-05-25T09:42:25.815Z,101399.07
2019-05-25T09:43:33.998Z,101396.37
2019-05-25T09:44:41.671Z,101398.03
2019-05-25T09:45:48.476Z,101393.61
2019-05-25T09:46:56.425Z,101400.33
2019-05-25T09:48:03.450Z,101397.70
2019-05-25T09:49:11.818Z,101402.87
2019-05-25T09:50:19.171Z,101396.80
2019-05-25T09:51:26.801Z,101396.50
2019-05-25T09:52:34.043Z,101401.95
2019-05-25T09:53:42.034Z,101402.41
2019-05-25T09:54:49.237Z,101397.81
2019-05-25T09:55:56.870Z,101397.53
2019-05-25T09:57:03.720Z,101399.84
2019-05-25T09:58:11.509Z,101400.12
2019-05-25T09:59:20.326Z,101400.06
2019-05-25T10:00:28.897Z,101400.71
2019-05-25T10:01:35.869Z,101394.11
2019-05-25T10:02:44.406Z,101398.12
2019-05-25T10:03:51.350Z,101401.23
2019-05-25T10:04:59.272Z,101400.19
2019-05-25T10:06:11.724Z,101396.36
2019-05-25T10:07:15.815Z,101401.11
2019-05-25T10:08:22.629Z,101394.67
2019-05-25T10:09:30.243Z,101399.87
2019-05-25T10:10:37.105Z,101404.45
2019-05-25T10:11:44.720Z,101399.98
2019-05-25T10:12:51.819Z,101398.68
2019-05-25T10:13:59.778Z,101399.40
2019-05-25T10:15:07.439Z,101403.82
2019-05-25T10:16:15.060Z,101398.63
2019-05-25T10:17:22.097Z,101395.66
2019-05-25T10:18:30.108Z,101398.16
2019-05-25T10:19:36.934Z,101397.38
2019-05-25T10:20:45.173Z,101401.50
2019-05-25T10:21:52.014Z,101400.03
2019-05-25T10:23:00.022Z,101404.22
2019-05-25T10:24:07.791Z,101398.78
2019-05-25T10:25:15.929Z,101391.66
2019-05-25T10:26:23.765Z,101394.67
2019-05-25T10:27:34.186Z,101396.80
2019-05-25T10:28:40.682Z,101398.44
2019-05-25T10:29:48.678Z,101395.59
2019-05-25T10:30:55.992Z,101396.67
2019-05-25T10:32:04.153Z,101390.19
2019-05-25T10:33:11.025Z,101384.38
2019-05-25T10:34:18.972Z,101387.94
2019-05-25T10:35:25.936Z,101389.11
2019-05-25T10:36:33.721Z,101390.18
2019-05-25T10:37:40.698Z,101389.42
2019-05-25T10:38:48.329Z,101389.18
2019-05-25T10:39:55.358Z,101392.08
2019-05-25T10:41:03.498Z,101382.91
2019-05-25T10:42:10.901Z,101377.95
2019-05-25T10:43:19.130Z,101379.84
2019-05-25T10:44:26.074Z,101380.45
2019-05-25T10:45:34.258Z,101379.71
2019-05-25T10:46:41.270Z,101381.55
2019-05-25T10:47:48.913Z,101375.92
2019-05-25T10:48:55.875Z,101377.21
2019-05-25T10:50:04.026Z,101375.92
2019-05-25T10:51:11.389Z,101377.81
2019-05-25T10:52:19.137Z,101369.53
2019-05-25T10:53:25.961Z,101370.59
2019-05-25T10:54:33.806Z,101364.23
2019-05-25T10:55:40.623Z,101362.94
2019-05-25T10:56:48.621Z,101359.61
2019-05-25T10:57:55.444Z,101360.94
2019-05-25T10:59:03.496Z,101359.81
2019-05-25T11:00:11.964Z,101360.44
2019-05-25T11:01:19.651Z,101357.84
2019-05-25T11:02:26.471Z,101365.19
2019-05-25T11:03:34.076Z,101366.28
2019-05-25T11:04:40.896Z,101365.87
2019-05-25T11:05:48.968Z,101364.29
2019-05-25T11:06:55.794Z,101368.03
2019-05-25T11:08:03.508Z,101368.79
2019-05-25T11:09:10.358Z,101372.37
2019-05-25T11:10:17.963Z,101370.30
2019-05-25T11:11:24.959Z,101369.48
2019-05-25T11:12:33.544Z,101365.34
2019-05-25T11:13:40.729Z,101367.20
2019-05-25T11:14:48.645Z,101364.90
2019-05-25T11:15:55.786Z,101363.55
2019-05-25T11:17:03.965Z,101361.31
2019-05-25T11:18:10.893Z,101360.23
2019-05-25T11:19:18.492Z,101357.92
2019-05-25T11:20:26.061Z,101361.28
2019-05-25T11:21:34.027Z,101366.19
2019-05-25T11:22:40.917Z,101362.67
2019-05-25T11:23:48.833Z,101359.23
2019-05-25T11:24:56.014Z,101362.02
2019-05-25T11:26:03.989Z,101363.83
2019-05-25T11:27:11.230Z,101354.23
2019-05-25T11:28:18.936Z,101356.57
2019-05-25T11:29:25.758Z,101359.56
2019-05-25T11:30:33.800Z,101358.66
2019-05-25T11:31:41.068Z,101354.67
2019-05-25T11:32:49.048Z,101358.95
2019-05-25T11:33:55.911Z,101360.30
2019-05-25T11:35:03.566Z,101358.14
2019-05-25T11:36:10.403Z,101359.22
2019-05-25T11:37:18.139Z,101356.05
2019-05-25T11:38:25.554Z,101356.68
2019-05-25T11:39:33.418Z,101360.87
2019-05-25T11:40:40.553Z,101358.43
2019-05-25T11:41:48.393Z,101351.95
2019-05-25T11:42:56.005Z,101353.41
2019-05-25T11:44:04.014Z,101351.80
2019-05-25T11:45:12.424Z,101347.91
2019-05-25T11:46:20.467Z,101356.88
2019-05-25T11:47:27.512Z,101351.08
2019-05-25T11:48:35.827Z,101351.14
2019-05-25T11:49:42.678Z,101355.37
2019-05-25T11:50:50.438Z,101353.75
2019-05-25T11:51:57.845Z,101349.88
2019-05-25T11:53:06.302Z,101354.63
2019-05-25T11:54:13.884Z,101356.39
2019-05-25T11:55:23.412Z,101356.84
2019-05-25T11:56:30.809Z,101351.94
2019-05-25T11:57:39.055Z,101351.86
2019-05-25T11:58:47.908Z,101353.14
2019-05-25T11:59:56.496Z,101350.31
2019-05-25T12:01:04.066Z,101354.27
2019-05-25T12:02:12.025Z,101343.97
2019-05-25T12:03:19.707Z,101350.05
2019-05-25T12:04:27.617Z,101341.91
2019-05-25T12:05:35.109Z,101339.37
2019-05-25T12:06:43.619Z,101340.59
2019-05-25T12:07:51.106Z,101342.86
2019-05-25T12:08:59.735Z,101339.91
2019-05-25T12:10:08.713Z,101341.16
2019-05-25T12:11:16.622Z,101340.72
2019-05-25T12:12:24.088Z,101339.47
2019-05-25T12:13:32.282Z,101331.63
2019-05-25T12:14:39.973Z,101335.41
2019-05-25T12:15:47.766Z,101335.28
2019-05-25T12:16:54.772Z,101336.48
2019-05-25T12:18:03.158Z,101324.95
2019-05-25T12:19:14.722Z,101328.28
2019-05-25T12:20:22.667Z,101324.29
2019-05-25T12:21:29.896Z,101326.43
2019-05-25T12:22:38.370Z,101326.55
2019-05-25T12:23:45.302Z,101320.86
2019-05-25T12:24:53.068Z,101317.31
2019-05-25T12:26:00.001Z,101321.71
2019-05-25T12:27:07.891Z,101332.84
2019-05-25T12:28:14.985Z,101324.89
2019-05-25T12:29:23.159Z,101320.41
2019-05-25T12:30:40.942Z,101324.09
2019-05-25T12:31:41.558Z,101320.23
2019-05-25T12:32:48.434Z,101320.41
2019-05-25T12:33:56.238Z,101326.42
2019-05-25T12:35:03.332Z,101319.52
2019-05-25T12:36:12.948Z,101328.19
2019-05-25T12:37:19.898Z,101326.83
2019-05-25T12:38:28.045Z,101332.91
2019-05-25T12:39:35.639Z,101320.06
2019-05-25T12:40:53.169Z,101326.75
2019-05-25T12:41:52.564Z,101325.77
2019-05-25T12:43:00.169Z,101330.73
2019-05-25T12:44:07.636Z,101330.20
2019-05-25T12:45:16.353Z,101333.86
2019-05-25T12:46:23.231Z,101335.34
2019-05-25T12:47:31.200Z,101345.44
2019-05-25T12:48:38.156Z,101339.36
2019-05-25T12:49:50.807Z,101341.66
2019-05-25T12:50:55.085Z,101334.08
2019-05-25T12:52:03.377Z,101327.91
2019-05-25T12:53:10.769Z,101330.41
2019-05-25T12:54:18.501Z,101333.13